Time;durP1;ratioP1;P1;durP2;ratioP2;P2;SDS_P1;SDS_P2;PMS_P1;PMS_P2;Temp;Humidity;BMP_temperature;BMP_pressure;BME280_temperature;BME280_humidity;BME280_pressure;Samples;Min_cycle;Max_cycle;Signal;HPM_P1;HPM_P2
2022/07/21 00:02:02;;;;;;;0.70;0.60;;;;;;;;;;4734080;30;20056;-54
2022/07/21 00:04:30;;;;;;;1.17;0.80;;;;;;;;;;4733917;30;20053;-52
2022/07/21 00:06:58;;;;;;;2.53;0.80;;;;;;;;;;4734083;30;20135;-54
2022/07/21 00:09:25;;;;;;;1.50;0.70;;;;;;;;;;4733660;30;20049;-50
2022/07/21 00:11:52;;;;;;;1.25;0.82;;;;;;;;;;4733939;30;20098;-54
2022/07/21 00:14:19;;;;;;;1.58;0.90;;;;;;;;;;4734544;30;20047;-54
2022/07/21 00:16:47;;;;;;;1.00;0.77;;;;;;;;;;4733869;30;20532;-53
2022/07/21 00:19:14;;;;;;;4.45;1.05;;;;;;;;;;4718290;30;20131;-58
2022/07/21 00:21:42;;;;;;;2.75;0.80;;;;;;;;;;4733835;30;20049;-54
2022/07/21 00:24:09;;;;;;;2.63;0.90;;;;;;;;;;4733709;30;20510;-53
2022/07/21 00:26:36;;;;;;;1.20;0.88;;;;;;;;;;4733840;30;20410;-53
2022/07/21 00:29:04;;;;;;;1.17;0.90;;;;;;;;;;4733656;30;20135;-55
2022/07/21 00:31:31;;;;;;;1.42;0.80;;;;;;;;;;4717861;30;20055;-51
2022/07/21 00:33:59;;;;;;;1.40;0.90;;;;;;;;;;4733794;30;20469;-51
2022/07/21 00:36:26;;;;;;;2.03;0.80;;;;;;;;;;4718240;30;20049;-52
2022/07/21 00:38:53;;;;;;;1.30;0.85;;;;;;;;;;4733339;30;20049;-54
2022/07/21 00:41:21;;;;;;;3.80;0.90;;;;;;;;;;4733537;30;20060;-52
2022/07/21 00:43:49;;;;;;;1.23;0.85;;;;;;;;;;4733629;30;20510;-53
2022/07/21 00:46:20;;;;;;;2.75;1.27;;;;;;;;;;4717826;30;20568;-54
2022/07/21 00:48:48;;;;;;;1.48;0.93;;;;;;;;;;4733221;30;20433;-52
2022/07/21 00:51:16;;;;;;;1.10;0.80;;;;;;;;;;4733670;30;20123;-53
2022/07/21 00:53:44;;;;;;;1.17;0.70;;;;;;;;;;4733307;30;20421;-49
2022/07/21 00:56:11;;;;;;;2.03;1.00;;;;;;;;;;4733582;30;20128;-53
2022/07/21 00:58:40;;;;;;;3.90;0.95;;;;;;;;;;4733385;30;20087;-54
2022/07/21 01:01:08;;;;;;;1.80;0.90;;;;;;;;;;4718301;30;20056;-55
2022/07/21 01:03:37;;;;;;;1.63;0.93;;;;;;;;;;4733382;30;20064;-52
2022/07/21 01:06:04;;;;;;;3.53;1.30;;;;;;;;;;4733483;30;20045;-54
2022/07/21 01:08:32;;;;;;;4.03;1.45;;;;;;;;;;4733453;30;20605;-53
2022/07/21 01:11:00;;;;;;;3.33;1.10;;;;;;;;;;4733256;30;20044;-53
2022/07/21 01:13:29;;;;;;;7.97;0.98;;;;;;;;;;4733448;30;20056;-53
2022/07/21 01:15:56;;;;;;;7.60;1.48;;;;;;;;;;4733279;30;20049;-54
2022/07/21 01:18:24;;;;;;;3.78;1.42;;;;;;;;;;4733402;30;20049;-53
2022/07/21 01:20:54;;;;;;;2.58;1.35;;;;;;;;;;4733253;30;20056;-54
2022/07/21 01:23:21;;;;;;;2.17;1.33;;;;;;;;;;4733489;30;20084;-53
2022/07/21 01:25:50;;;;;;;1.67;1.00;;;;;;;;;;4733238;30;20418;-52
2022/07/21 01:28:18;;;;;;;3.20;1.10;;;;;;;;;;4733478;30;20076;-54
2022/07/21 01:30:46;;;;;;;7.93;1.23;;;;;;;;;;4732913;30;20053;-52
2022/07/21 01:33:13;;;;;;;1.40;1.00;;;;;;;;;;4717915;30;20052;-51
2022/07/21 01:35:41;;;;;;;1.30;0.95;;;;;;;;;;4733579;30;20055;-53
2022/07/21 01:41:28;;;;;;;3.15;1.27;;;;;;;;;;4733303;30;20045;-53
2022/07/21 01:43:47;;;;;;;2.67;1.10;;;;;;;;;;4722555;30;20045;-52
2022/07/21 01:46:14;;;;;;;1.45;1.10;;;;;;;;;;4736249;30;20047;-54
2022/07/21 01:48:43;;;;;;;4.40;1.27;;;;;;;;;;4736232;30;20260;-52
2022/07/21 01:51:14;;;;;;;1.58;0.90;;;;;;;;;;4720995;30;20509;-54
2022/07/21 01:53:42;;;;;;;1.58;1.08;;;;;;;;;;4736300;30;20118;-53
2022/07/21 01:56:09;;;;;;;1.70;1.00;;;;;;;;;;4736398;30;20048;-51
2022/07/21 01:58:37;;;;;;;2.25;1.02;;;;;;;;;;4720390;30;20080;-52
2022/07/21 02:01:05;;;;;;;2.45;1.17;;;;;;;;;;4735959;30;20052;-52
2022/07/21 02:03:32;;;;;;;3.38;1.13;;;;;;;;;;4735728;30;20079;-53
2022/07/21 02:06:04;;;;;;;3.20;1.00;;;;;;;;;;4735776;30;20049;-54
2022/07/21 02:08:32;;;;;;;2.33;1.20;;;;;;;;;;4736018;30;20083;-54
2022/07/21 02:10:59;;;;;;;1.85;1.20;;;;;;;;;;4720002;30;20087;-52
2022/07/21 02:13:29;;;;;;;7.75;1.15;;;;;;;;;;4720227;30;20562;-52
2022/07/21 02:15:57;;;;;;;8.20;1.20;;;;;;;;;;4735901;30;20048;-54
2022/07/21 02:18:24;;;;;;;3.50;1.40;;;;;;;;;;4735677;30;20083;-52
2022/07/21 02:20:52;;;;;;;2.22;1.48;;;;;;;;;;4735560;30;20510;-54
2022/07/21 02:23:19;;;;;;;9.30;4.35;;;;;;;;;;4735426;30;20088;-54
2022/07/21 02:25:47;;;;;;;4.43;2.28;;;;;;;;;;4735760;30;20083;-52
2022/07/21 02:28:15;;;;;;;4.55;1.50;;;;;;;;;;4735691;30;20094;-53
2022/07/21 02:30:45;;;;;;;2.00;1.42;;;;;;;;;;4726154;30;20110;-51
2022/07/21 02:33:13;;;;;;;3.33;1.20;;;;;;;;;;4717900;30;20073;-49
2022/07/21 02:35:41;;;;;;;4.68;1.50;;;;;;;;;;4718329;30;20045;-54
2022/07/21 02:38:09;;;;;;;1.85;1.10;;;;;;;;;;4718124;30;20094;-52
2022/07/21 02:40:37;;;;;;;106.00;53.10;;;;;;;;;;4717782;30;20048;-53
2022/07/21 02:43:05;;;;;;;16.40;9.32;;;;;;;;;;4717946;30;20057;-50
2022/07/21 02:45:33;;;;;;;5.05;2.78;;;;;;;;;;4702530;30;20057;-54
2022/07/21 02:48:04;;;;;;;2.70;1.25;;;;;;;;;;4717832;30;20392;-53
2022/07/21 02:50:34;;;;;;;1.70;1.02;;;;;;;;;;4717866;30;20497;-53
2022/07/21 02:53:07;;;;;;;1.52;1.00;;;;;;;;;;4717905;30;20103;-53
2022/07/21 02:55:36;;;;;;;1.73;1.00;;;;;;;;;;4716840;30;20128;-53
2022/07/21 02:58:14;;;;;;;4.10;1.10;;;;;;;;;;4717812;30;20056;-54
2022/07/21 03:01:03;;;;;;;1.70;0.85;;;;;;;;;;4717657;30;20060;-56
2022/07/21 03:03:35;;;;;;;1.98;1.40;;;;;;;;;;4717736;30;20052;-51
2022/07/21 03:06:04;;;;;;;2.15;1.40;;;;;;;;;;4717465;30;20052;-53
2022/07/21 03:08:33;;;;;;;2.13;1.30;;;;;;;;;;4717078;30;20055;-53
2022/07/21 03:11:02;;;;;;;2.05;1.27;;;;;;;;;;4717320;30;20107;-53
2022/07/21 03:13:30;;;;;;;1.50;1.10;;;;;;;;;;4717401;30;20084;-54
2022/07/21 03:15:57;;;;;;;1.00;0.90;;;;;;;;;;4701676;30;20053;-54
2022/07/21 03:18:25;;;;;;;1.77;0.98;;;;;;;;;;4717190;30;20041;-51
2022/07/21 03:20:52;;;;;;;1.67;1.10;;;;;;;;;;4716987;30;20049;-55
2022/07/21 03:23:20;;;;;;;3.25;1.20;;;;;;;;;;4716745;30;20049;-51
2022/07/21 03:25:47;;;;;;;1.27;0.98;;;;;;;;;;4716714;30;20045;-53
2022/07/21 03:28:14;;;;;;;1.27;0.93;;;;;;;;;;4716808;30;20102;-54
2022/07/21 03:30:42;;;;;;;1.85;0.93;;;;;;;;;;4711387;30;20051;-52
2022/07/21 03:33:10;;;;;;;3.47;1.02;;;;;;;;;;4734815;30;20045;-59
2022/07/21 03:35:37;;;;;;;8.77;4.68;;;;;;;;;;4734233;30;20065;-53
2022/07/21 03:38:05;;;;;;;18.50;10.90;;;;;;;;;;4734365;30;20052;-53
2022/07/21 03:40:35;;;;;;;8.27;4.32;;;;;;;;;;4734059;30;20064;-52
2022/07/21 03:43:05;;;;;;;2.00;1.27;;;;;;;;;;4734443;30;20052;-51
2022/07/21 03:45:33;;;;;;;2.20;1.20;;;;;;;;;;4734206;30;20051;-58
2022/07/21 03:48:03;;;;;;;1.60;1.08;;;;;;;;;;4734122;30;20468;-57
2022/07/21 03:50:30;;;;;;;2.00;1.20;;;;;;;;;;4733991;30;20117;-54
2022/07/21 03:52:58;;;;;;;1.73;1.20;;;;;;;;;;4733986;30;20051;-58
2022/07/21 03:55:26;;;;;;;2.15;1.10;;;;;;;;;;4734251;30;20090;-56
2022/07/21 03:57:56;;;;;;;2.25;1.02;;;;;;;;;;4704309;30;20461;-54
2022/07/21 04:00:44;;;;;;;3.28;1.30;;;;;;;;;;4733419;30;20463;-51
2022/07/21 04:03:14;;;;;;;1.52;1.08;;;;;;;;;;4733352;30;20056;-56
2022/07/21 04:05:43;;;;;;;2.28;0.95;;;;;;;;;;4734114;30;20057;-53
2022/07/21 04:08:12;;;;;;;1.30;1.05;;;;;;;;;;4733398;30;20048;-57
2022/07/21 04:10:41;;;;;;;1.92;1.08;;;;;;;;;;4734108;30;20048;-53
2022/07/21 04:13:13;;;;;;;1.20;1.05;;;;;;;;;;4734244;30;20041;-57
2022/07/21 04:15:41;;;;;;;2.55;1.02;;;;;;;;;;4733263;30;20539;-57
2022/07/21 04:18:09;;;;;;;3.55;1.98;;;;;;;;;;4734253;30;20044;-57
2022/07/21 04:20:36;;;;;;;17.10;7.22;;;;;;;;;;4737555;30;20523;-57
2022/07/21 04:23:04;;;;;;;4.95;1.77;;;;;;;;;;4751668;30;20056;-52
2022/07/21 04:25:32;;;;;;;2.80;1.48;;;;;;;;;;4751354;30;20040;-53
2022/07/21 04:27:59;;;;;;;1.20;1.10;;;;;;;;;;4751629;30;20151;-57
2022/07/21 04:30:27;;;;;;;1.92;1.30;;;;;;;;;;4743536;30;20145;-58
2022/07/21 04:32:54;;;;;;;2.38;1.30;;;;;;;;;;4718407;30;20114;-53
2022/07/21 04:35:22;;;;;;;1.70;1.33;;;;;;;;;;4733750;30;20122;-57
2022/07/21 04:37:49;;;;;;;3.05;1.20;;;;;;;;;;4733850;30;20052;-53
2022/07/21 04:40:17;;;;;;;1.67;1.00;;;;;;;;;;4733549;30;20056;-53
2022/07/21 04:42:44;;;;;;;3.22;1.20;;;;;;;;;;4733388;30;20044;-51
2022/07/21 04:45:14;;;;;;;1.52;1.05;;;;;;;;;;4733615;30;20049;-53
2022/07/21 04:47:54;;;;;;;3.30;1.30;;;;;;;;;;4733716;30;20058;-57
2022/07/21 04:50:24;;;;;;;1.42;1.00;;;;;;;;;;4733647;30;20169;-50
2022/07/21 04:52:52;;;;;;;7.82;2.75;;;;;;;;;;4733168;30;20044;-54
2022/07/21 04:55:20;;;;;;;44.97;24.55;;;;;;;;;;4733709;30;20100;-51
2022/07/21 04:57:50;;;;;;;8.68;4.25;;;;;;;;;;4733443;30;20053;-57
2022/07/21 05:00:20;;;;;;;2.22;1.35;;;;;;;;;;4733357;30;20147;-52
2022/07/21 05:02:49;;;;;;;2.13;1.10;;;;;;;;;;4733368;30;20513;-57
2022/07/21 05:05:16;;;;;;;2.17;1.17;;;;;;;;;;4733248;30;20091;-52
2022/07/21 05:07:44;;;;;;;1.73;1.00;;;;;;;;;;4733476;30;20051;-53
2022/07/21 05:10:13;;;;;;;1.23;1.10;;;;;;;;;;4733867;30;20070;-57
2022/07/21 05:12:41;;;;;;;1.52;0.98;;;;;;;;;;4733393;30;20052;-53
2022/07/21 05:15:11;;;;;;;1.25;0.88;;;;;;;;;;4733720;30;20506;-53
2022/07/21 05:17:40;;;;;;;6.78;1.17;;;;;;;;;;4734138;30;20049;-57
2022/07/21 05:20:09;;;;;;;1.25;1.00;;;;;;;;;;4736889;30;20056;-56
2022/07/21 05:22:36;;;;;;;7.82;5.32;;;;;;;;;;4736838;30;20061;-54
2022/07/21 05:25:05;;;;;;;2.78;1.60;;;;;;;;;;4736539;30;20079;-53
2022/07/21 05:27:32;;;;;;;1.33;0.90;;;;;;;;;;4736544;30;20501;-53
2022/07/21 05:30:00;;;;;;;2.20;0.98;;;;;;;;;;4736589;30;20049;-58
2022/07/21 05:32:27;;;;;;;1.00;0.80;;;;;;;;;;4736630;30;20108;-57
2022/07/21 05:34:55;;;;;;;1.33;0.88;;;;;;;;;;4736702;30;20422;-53
2022/07/21 05:37:27;;;;;;;1.48;1.00;;;;;;;;;;4736181;30;20110;-57
2022/07/21 05:39:54;;;;;;;1.00;0.90;;;;;;;;;;4736188;30;20536;-52
2022/07/21 05:42:22;;;;;;;48.05;27.40;;;;;;;;;;4736453;30;20045;-51
2022/07/21 05:44:49;;;;;;;10.77;7.50;;;;;;;;;;4736192;30;20045;-50
2022/07/21 05:47:16;;;;;;;2.42;1.75;;;;;;;;;;4736272;30;20080;-56
2022/07/21 05:49:46;;;;;;;2.58;1.00;;;;;;;;;;4736418;30;20059;-53
2022/07/21 05:52:13;;;;;;;1.90;1.05;;;;;;;;;;4736120;30;20057;-50
2022/07/21 05:54:41;;;;;;;1.00;0.90;;;;;;;;;;4736256;30;20056;-57
2022/07/21 05:57:09;;;;;;;1.10;1.00;;;;;;;;;;4736247;30;20391;-53
2022/07/21 05:59:36;;;;;;;2.63;0.98;;;;;;;;;;4735988;30;20057;-53
2022/07/21 06:02:03;;;;;;;1.13;0.80;;;;;;;;;;4735900;30;20060;-53
2022/07/21 06:04:31;;;;;;;1.10;0.90;;;;;;;;;;4736072;30;20049;-51
2022/07/21 06:06:58;;;;;;;1.63;1.00;;;;;;;;;;4735926;30;20048;-51
2022/07/21 06:09:26;;;;;;;1.33;0.85;;;;;;;;;;4735848;30;20135;-57
2022/07/21 06:11:53;;;;;;;1.98;1.00;;;;;;;;;;4735780;30;20903;-52
2022/07/21 06:14:20;;;;;;;1.45;0.93;;;;;;;;;;4735922;30;20131;-53
2022/07/21 06:16:48;;;;;;;1.00;0.80;;;;;;;;;;4735984;30;20076;-52
2022/07/21 06:19:16;;;;;;;1.13;0.73;;;;;;;;;;4735535;30;20052;-51
2022/07/21 06:21:43;;;;;;;0.80;0.70;;;;;;;;;;4735755;30;20052;-51
2022/07/21 06:24:13;;;;;;;0.90;0.80;;;;;;;;;;4735947;30;20072;-56
2022/07/21 06:26:40;;;;;;;2.10;0.90;;;;;;;;;;4735777;30;20047;-55
2022/07/21 06:29:08;;;;;;;2.38;0.95;;;;;;;;;;4735282;30;20084;-52
2022/07/21 06:31:35;;;;;;;1.20;0.80;;;;;;;;;;4735667;30;20052;-53
2022/07/21 06:34:03;;;;;;;2.83;0.85;;;;;;;;;;4735474;30;20132;-53
2022/07/21 06:36:30;;;;;;;2.08;1.00;;;;;;;;;;4735602;30;20049;-57
2022/07/21 06:38:58;;;;;;;1.65;1.00;;;;;;;;;;4735059;30;20103;-54
2022/07/21 06:41:25;;;;;;;1.00;0.90;;;;;;;;;;4735320;30;20056;-53
2022/07/21 06:43:53;;;;;;;0.93;0.80;;;;;;;;;;4735616;30;20072;-56
2022/07/21 06:46:21;;;;;;;1.67;0.80;;;;;;;;;;4735329;30;20131;-53
2022/07/21 06:48:49;;;;;;;1.55;1.00;;;;;;;;;;4735146;30;20106;-53
2022/07/21 06:51:17;;;;;;;1.30;0.90;;;;;;;;;;4735323;30;20049;-50
2022/07/21 06:53:45;;;;;;;1.20;0.90;;;;;;;;;;4735399;30;20410;-52
2022/07/21 06:56:12;;;;;;;2.55;0.90;;;;;;;;;;4735326;30;20051;-52
2022/07/21 06:58:39;;;;;;;1.65;1.00;;;;;;;;;;4735100;30;20087;-53
2022/07/21 07:01:16;;;;;;;1.15;0.82;;;;;;;;;;4735358;30;20573;-51
2022/07/21 07:03:44;;;;;;;4.88;3.08;;;;;;;;;;4735192;30;20065;-54
2022/07/21 07:06:18;;;;;;;2.03;1.00;;;;;;;;;;4735089;30;20522;-53
2022/07/21 07:08:46;;;;;;;1.48;0.80;;;;;;;;;;4734861;30;20044;-52
2022/07/21 07:11:13;;;;;;;3.50;0.80;;;;;;;;;;4735039;30;20568;-54
2022/07/21 07:13:40;;;;;;;2.20;1.05;;;;;;;;;;4734786;30;20068;-49
2022/07/21 07:16:28;;;;;;;1.15;0.80;;;;;;;;;;4734734;30;20053;-50
2022/07/21 07:18:55;;;;;;;1.15;0.80;;;;;;;;;;4734834;30;20048;-52
2022/07/21 07:21:24;;;;;;;14.02;6.90;;;;;;;;;;4734713;30;20118;-55
2022/07/21 07:23:51;;;;;;;1.85;0.90;;;;;;;;;;4734753;30;20044;-50
2022/07/21 07:26:19;;;;;;;1.60;0.90;;;;;;;;;;4734885;30;20132;-52
2022/07/21 07:28:46;;;;;;;1.30;0.68;;;;;;;;;;4734686;30;20486;-51
2022/07/21 07:31:13;;;;;;;1.08;0.70;;;;;;;;;;4734477;30;20213;-57
2022/07/21 07:33:40;;;;;;;0.70;0.60;;;;;;;;;;4734607;30;20510;-50
2022/07/21 07:36:12;;;;;;;0.95;0.82;;;;;;;;;;4734439;30;20510;-55
2022/07/21 07:38:40;;;;;;;0.82;0.75;;;;;;;;;;4734584;30;20053;-56
2022/07/21 07:41:07;;;;;;;1.42;0.93;;;;;;;;;;4733799;30;20059;-50
2022/07/21 07:43:35;;;;;;;0.93;0.70;;;;;;;;;;4734196;30;20041;-57
2022/07/21 07:46:04;;;;;;;1.95;0.80;;;;;;;;;;4734529;30;20052;-52
2022/07/21 07:48:34;;;;;;;54.15;32.30;;;;;;;;;;4734121;30;20102;-50
2022/07/21 07:51:01;;;;;;;5.03;3.13;;;;;;;;;;4734275;30;20510;-52
2022/07/21 07:53:28;;;;;;;1.83;1.00;;;;;;;;;;4733860;30;20127;-53
2022/07/21 07:55:56;;;;;;;0.85;0.80;;;;;;;;;;4734035;30;20454;-47
2022/07/21 07:58:24;;;;;;;2.47;0.70;;;;;;;;;;4733594;30;20514;-48
2022/07/21 08:00:51;;;;;;;1.20;0.80;;;;;;;;;;4732947;30;20053;-57
2022/07/21 08:03:23;;;;;;;2.90;1.00;;;;;;;;;;4717210;30;20110;-54
2022/07/21 08:05:51;;;;;;;1.05;0.80;;;;;;;;;;4734104;30;20044;-54
2022/07/21 08:08:18;;;;;;;0.82;0.80;;;;;;;;;;4733683;30;20123;-52
2022/07/21 08:10:46;;;;;;;0.70;0.65;;;;;;;;;;4733691;30;20461;-53
2022/07/21 08:13:16;;;;;;;8.23;5.07;;;;;;;;;;4734034;30;20069;-58
2022/07/21 08:15:45;;;;;;;3.08;1.95;;;;;;;;;;4734261;30;20056;-51
2022/07/21 08:18:13;;;;;;;1.92;0.93;;;;;;;;;;4733684;30;20044;-51
2022/07/21 08:20:41;;;;;;;2.00;1.05;;;;;;;;;;4733822;30;20045;-51
2022/07/21 08:23:08;;;;;;;1.45;0.90;;;;;;;;;;4733522;30;20052;-55
2022/07/21 08:25:38;;;;;;;1.45;1.15;;;;;;;;;;4733775;30;20045;-57
2022/07/21 08:28:08;;;;;;;1.30;0.95;;;;;;;;;;4734009;30;20048;-54
2022/07/21 08:30:36;;;;;;;1.02;0.80;;;;;;;;;;4733740;30;20052;-52
2022/07/21 08:33:05;;;;;;;3.45;0.90;;;;;;;;;;4733584;30;20545;-58
2022/07/21 08:35:33;;;;;;;0.80;0.70;;;;;;;;;;4733438;30;20059;-50
2022/07/21 08:38:07;;;;;;;1.13;0.73;;;;;;;;;;4717698;30;20102;-51
2022/07/21 08:40:40;;;;;;;1.77;1.10;;;;;;;;;;4744819;30;20102;-52
2022/07/21 08:43:08;;;;;;;9.57;5.05;;;;;;;;;;4751031;30;20071;-51
2022/07/21 08:45:37;;;;;;;6.13;2.53;;;;;;;;;;4751205;30;20087;-54
2022/07/21 08:48:05;;;;;;;1.77;0.88;;;;;;;;;;4750905;30;20143;-58
2022/07/21 08:50:36;;;;;;;1.35;0.82;;;;;;;;;;4751273;30;20052;-52
2022/07/21 08:53:04;;;;;;;1.10;0.90;;;;;;;;;;4751982;30;20052;-53
2022/07/21 08:55:34;;;;;;;1.02;0.80;;;;;;;;;;4754808;30;20421;-52
2022/07/21 08:58:03;;;;;;;1.48;0.60;;;;;;;;;;4754645;30;20068;-50
2022/07/21 09:00:34;;;;;;;1.65;0.50;;;;;;;;;;4754225;30;20049;-52
2022/07/21 09:03:09;;;;;;;0.88;0.40;;;;;;;;;;4754595;30;20139;-59
2022/07/21 09:05:37;;;;;;;0.82;0.60;;;;;;;;;;4754274;30;20113;-50
2022/07/21 09:08:05;;;;;;;0.60;0.60;;;;;;;;;;4754631;30;20060;-58
2022/07/21 09:10:33;;;;;;;1.15;0.75;;;;;;;;;;4754397;30;20048;-57
2022/07/21 09:13:04;;;;;;;1.05;0.55;;;;;;;;;;4753895;30;20055;-55
2022/07/21 09:15:32;;;;;;;1.63;0.80;;;;;;;;;;4754489;30;20051;-58
2022/07/21 09:18:12;;;;;;;1.08;0.70;;;;;;;;;;4738581;30;20094;-51
2022/07/21 09:20:50;;;;;;;2.38;0.70;;;;;;;;;;4754546;30;20048;-53
2022/07/21 09:23:21;;;;;;;0.95;0.70;;;;;;;;;;4754424;30;20049;-57
2022/07/21 09:25:53;;;;;;;1.13;0.70;;;;;;;;;;4754513;30;20505;-51
2022/07/21 09:28:28;;;;;;;0.90;0.70;;;;;;;;;;4754408;30;20094;-58
2022/07/21 09:31:04;;;;;;;1.20;0.88;;;;;;;;;;4742541;30;20059;-52
2022/07/21 09:33:37;;;;;;;3.67;0.80;;;;;;;;;;4729462;30;20053;-52
2022/07/21 09:36:09;;;;;;;5.47;3.35;;;;;;;;;;4736319;30;20080;-56
2022/07/21 09:38:44;;;;;;;1.33;0.70;;;;;;;;;;4736328;30;20486;-51
2022/07/21 09:41:14;;;;;;;7.28;1.60;;;;;;;;;;4720893;30;20056;-57
2022/07/21 09:43:45;;;;;;;0.65;0.60;;;;;;;;;;4736194;30;20127;-58
2022/07/21 09:46:25;;;;;;;1.55;1.00;;;;;;;;;;4736207;30;20447;-58
2022/07/21 09:48:55;;;;;;;1.30;0.90;;;;;;;;;;4736358;30;20118;-50
2022/07/21 09:51:43;;;;;;;1.50;0.93;;;;;;;;;;4730579;30;20052;-57
2022/07/21 09:54:12;;;;;;;2.83;0.70;;;;;;;;;;4736152;30;20045;-52
2022/07/21 09:56:43;;;;;;;1.42;0.80;;;;;;;;;;4736061;30;20060;-52
2022/07/21 09:59:12;;;;;;;1.20;0.75;;;;;;;;;;4735870;30;20068;-51
2022/07/21 10:01:41;;;;;;;1.98;0.80;;;;;;;;;;4736058;30;20107;-53
2022/07/21 10:04:08;;;;;;;1.60;0.80;;;;;;;;;;4735454;30;20457;-53
2022/07/21 10:06:38;;;;;;;0.93;0.70;;;;;;;;;;4736185;30;20098;-58
2022/07/21 10:09:07;;;;;;;12.02;7.75;;;;;;;;;;4735805;30;20577;-57
2022/07/21 10:11:41;;;;;;;1.52;0.88;;;;;;;;;;4720133;30;20053;-52
2022/07/21 10:14:10;;;;;;;1.00;0.88;;;;;;;;;;4735833;30;20056;-50
2022/07/21 10:16:38;;;;;;;1.05;0.68;;;;;;;;;;4736046;30;20457;-51
2022/07/21 10:19:30;;;;;;;0.82;0.73;;;;;;;;;;4735694;30;20049;-53
2022/07/21 10:22:22;;;;;;;1.27;0.70;;;;;;;;;;4735480;30;20471;-51
2022/07/21 10:24:49;;;;;;;2.15;0.80;;;;;;;;;;4735527;30;20106;-54
2022/07/21 10:27:17;;;;;;;1.52;0.77;;;;;;;;;;4735708;30;20052;-53
2022/07/21 10:30:00;;;;;;;3.72;1.70;;;;;;;;;;4735505;30;20071;-51
2022/07/21 10:32:31;;;;;;;5.13;2.00;;;;;;;;;;4735446;30;20107;-51
2022/07/21 10:35:04;;;;;;;2.42;0.80;;;;;;;;;;4735457;30;20127;-57
2022/07/21 10:37:40;;;;;;;;;;;;;;;;;;4735605;30;20049;-58
2022/07/21 10:40:19;;;;;;;2.95;0.90;;;;;;;;;;4735558;30;19935;-52
2022/07/21 10:42:59;;;;;;;1.20;0.80;;;;;;;;;;4734316;30;20581;-49
2022/07/21 10:45:32;;;;;;;1.30;0.80;;;;;;;;;;4742405;30;20488;-50
2022/07/21 10:48:00;;;;;;;2.45;0.75;;;;;;;;;;4753010;30;20052;-54
2022/07/21 10:50:35;;;;;;;0.60;0.55;;;;;;;;;;4752984;30;20067;-51
2022/07/21 10:53:05;;;;;;;0.90;0.70;;;;;;;;;;4752784;30;20048;-54
2022/07/21 10:55:36;;;;;;;1.52;0.98;;;;;;;;;;4752744;30;20048;-53
2022/07/21 10:58:13;;;;;;;1.25;0.70;;;;;;;;;;4752715;30;20445;-52
2022/07/21 11:00:45;;;;;;;1.38;0.60;;;;;;;;;;4752769;30;20052;-57
2022/07/21 11:03:40;;;;;;;5.00;2.83;;;;;;;;;;4752323;30;20417;-49
2022/07/21 11:06:27;;;;;;;1.30;0.70;;;;;;;;;;4752461;30;20075;-54
2022/07/21 11:09:05;;;;;;;1.67;0.90;;;;;;;;;;4752792;30;20123;-51
2022/07/21 11:11:34;;;;;;;0.75;0.60;;;;;;;;;;4752499;30;20525;-57
2022/07/21 11:14:07;;;;;;;0.70;0.60;;;;;;;;;;4752348;30;20048;-52
2022/07/21 11:19:34;;;;;;;1.50;0.80;;;;;;;;;;4752346;30;20119;-53
2022/07/21 11:22:09;;;;;;;2.42;0.70;;;;;;;;;;4752400;30;20527;-53
2022/07/21 11:24:37;;;;;;;2.25;0.60;;;;;;;;;;4752262;30;20514;-53
2022/07/21 11:27:11;;;;;;;1.80;0.80;;;;;;;;;;4752122;30;20047;-53
2022/07/21 11:29:41;;;;;;;31.75;17.50;;;;;;;;;;4752214;30;20044;-54
2022/07/21 11:32:11;;;;;;;2.00;0.88;;;;;;;;;;4752274;30;20048;-56
2022/07/21 11:34:48;;;;;;;2.60;0.60;;;;;;;;;;4752139;30;20052;-53
2022/07/21 11:37:28;;;;;;;0.77;0.47;;;;;;;;;;4752008;30;20505;-57
2022/07/21 11:40:08;;;;;;;0.93;0.70;;;;;;;;;;4752067;30;20067;-56
2022/07/21 11:42:36;;;;;;;1.10;0.65;;;;;;;;;;4751840;30;20067;-57
2022/07/21 11:45:06;;;;;;;1.13;0.77;;;;;;;;;;4751616;30;20513;-49
2022/07/21 11:47:33;;;;;;;0.98;0.60;;;;;;;;;;4751822;30;20564;-56
2022/07/21 11:50:04;;;;;;;1.23;0.63;;;;;;;;;;4751833;30;20048;-51
2022/07/21 11:52:36;;;;;;;0.50;0.50;;;;;;;;;;4751846;30;20056;-53
2022/07/21 11:55:06;;;;;;;2.38;0.60;;;;;;;;;;4751712;30;20052;-54
2022/07/21 11:57:34;;;;;;;2.85;0.55;;;;;;;;;;4751560;30;20048;-57
2022/07/21 12:00:07;;;;;;;0.65;0.52;;;;;;;;;;4751331;30;20067;-56
2022/07/21 12:02:37;;;;;;;0.32;0.30;;;;;;;;;;4751698;30;20421;-55
2022/07/21 12:05:08;;;;;;;0.90;0.40;;;;;;;;;;4751417;30;20052;-57
2022/07/21 12:07:41;;;;;;;0.93;0.57;;;;;;;;;;4751554;30;20094;-56
2022/07/21 12:10:13;;;;;;;1.05;0.50;;;;;;;;;;4751605;30;20052;-57
2022/07/21 12:12:46;;;;;;;2.70;0.60;;;;;;;;;;4751467;30;20051;-57
2022/07/21 12:15:33;;;;;;;0.80;0.40;;;;;;;;;;4751612;30;20475;-52
2022/07/21 12:18:26;;;;;;;9.60;5.28;;;;;;;;;;4751069;30;20131;-54
2022/07/21 12:21:25;;;;;;;1.00;0.60;;;;;;;;;;4751368;30;20052;-51
2022/07/21 12:24:18;;;;;;;0.73;0.50;;;;;;;;;;4751080;30;20088;-51
2022/07/21 12:27:15;;;;;;;0.60;0.50;;;;;;;;;;4750555;30;20583;-46
2022/07/21 12:30:44;;;;;;;1.20;0.50;;;;;;;;;;4751393;30;20040;-57
2022/07/21 12:33:45;;;;;;;0.85;0.45;;;;;;;;;;4751552;30;20059;-51
2022/07/21 12:37:17;;;;;;;0.65;0.40;;;;;;;;;;4750778;30;20072;-53
2022/07/21 12:40:31;;;;;;;0.98;0.50;;;;;;;;;;4751056;30;20052;-54
2022/07/21 12:43:43;;;;;;;;;;;;;;;;;;4751524;30;20122;-57
2022/07/21 12:46:44;;;;;;;0.95;0.40;;;;;;;;;;4750952;30;19926;-49
2022/07/21 12:50:04;;;;;;;1.15;0.70;;;;;;;;;;4750562;30;20150;-57
2022/07/21 12:53:04;;;;;;;0.55;0.40;;;;;;;;;;4751094;30;20036;-54
2022/07/21 12:55:57;;;;;;;;;;;;;;;;;;4751512;30;20051;-51
2022/07/21 12:58:59;;;;;;;0.50;0.50;;;;;;;;;;4753679;30;19926;-51
2022/07/21 13:01:57;;;;;;;1.85;0.50;;;;;;;;;;4768577;30;20048;-54
2022/07/21 13:04:44;;;;;;;1.10;0.55;;;;;;;;;;4768476;30;20412;-52
2022/07/21 13:07:26;;;;;;;2.13;0.45;;;;;;;;;;4754613;30;20067;-53
2022/07/21 13:09:54;;;;;;;1.13;0.70;;;;;;;;;;4768552;30;20247;-50
2022/07/21 13:12:21;;;;;;;1.00;0.60;;;;;;;;;;4768822;30;20584;-54
2022/07/21 13:14:48;;;;;;;0.90;0.60;;;;;;;;;;4768368;30;20052;-50
2022/07/21 13:17:15;;;;;;;1.25;0.47;;;;;;;;;;4768613;30;20055;-55
2022/07/21 13:19:42;;;;;;;2.55;1.50;;;;;;;;;;4768665;30;20079;-56
2022/07/21 13:22:13;;;;;;;2.63;0.70;;;;;;;;;;4768449;30;20052;-51
2022/07/21 13:24:40;;;;;;;0.80;0.50;;;;;;;;;;4768763;30;20043;-57
2022/07/21 13:27:07;;;;;;;0.82;0.70;;;;;;;;;;4768604;30;20087;-52
2022/07/21 13:29:36;;;;;;;0.60;0.40;;;;;;;;;;4767350;30;20048;-57
2022/07/21 13:32:04;;;;;;;3.13;0.68;;;;;;;;;;4735026;30;20056;-57
2022/07/21 13:34:32;;;;;;;0.70;0.60;;;;;;;;;;4751080;30;20500;-56
2022/07/21 13:37:00;;;;;;;1.00;0.60;;;;;;;;;;4750631;30;20056;-50
2022/07/21 13:39:28;;;;;;;0.50;0.50;;;;;;;;;;4752755;30;20036;-53
2022/07/21 13:42:16;;;;;;;2.15;0.75;;;;;;;;;;4753658;30;20052;-53
2022/07/21 13:45:04;;;;;;;1.08;0.70;;;;;;;;;;4754083;30;20417;-54
2022/07/21 13:47:31;;;;;;;1.08;0.70;;;;;;;;;;4754091;30;20048;-57
2022/07/21 13:49:59;;;;;;;1.20;0.55;;;;;;;;;;4738344;30;20121;-51
2022/07/21 13:52:26;;;;;;;0.98;0.73;;;;;;;;;;4737664;30;20052;-56
2022/07/21 13:54:54;;;;;;;1.17;0.70;;;;;;;;;;4753792;30;20040;-56
2022/07/21 13:57:21;;;;;;;15.13;10.13;;;;;;;;;;4753821;30;20047;-63
2022/07/21 13:59:48;;;;;;;1.73;1.05;;;;;;;;;;4753531;30;20092;-51
2022/07/21 14:02:16;;;;;;;1.10;0.60;;;;;;;;;;4753696;30;20509;-54
2022/07/21 14:04:43;;;;;;;1.30;0.70;;;;;;;;;;4753474;30;20102;-52
2022/07/21 14:07:13;;;;;;;1.65;0.60;;;;;;;;;;4753715;30;20058;-57
2022/07/21 14:09:41;;;;;;;0.60;0.60;;;;;;;;;;4753761;30;20127;-53
2022/07/21 14:12:09;;;;;;;1.00;0.65;;;;;;;;;;4753493;30;20048;-54
2022/07/21 14:14:40;;;;;;;0.82;0.60;;;;;;;;;;4752365;30;20063;-53
2022/07/21 14:17:07;;;;;;;2.28;0.70;;;;;;;;;;4753212;30;20509;-57
2022/07/21 14:19:35;;;;;;;0.85;0.60;;;;;;;;;;4753372;30;20050;-54
2022/07/21 14:22:02;;;;;;;1.08;0.65;;;;;;;;;;4753311;30;20102;-54
2022/07/21 14:27:15;;;;;;;1.10;0.70;;;;;;;;;;4753087;30;20166;-56
2022/07/21 14:29:42;;;;;;;2.88;0.75;;;;;;;;;;4752991;30;20586;-51
2022/07/21 14:32:09;;;;;;;1.25;0.50;;;;;;;;;;4752857;30;20080;-54
2022/07/21 14:34:37;;;;;;;0.98;0.68;;;;;;;;;;4753329;30;20044;-51
2022/07/21 14:37:04;;;;;;;0.57;0.57;;;;;;;;;;4753306;30;20135;-53
2022/07/21 14:39:31;;;;;;;1.40;0.73;;;;;;;;;;4753004;30;20561;-52
2022/07/21 14:41:59;;;;;;;3.72;2.28;;;;;;;;;;4752908;30;20155;-50
2022/07/21 14:44:26;;;;;;;1.05;0.80;;;;;;;;;;4752944;30;20456;-51
2022/07/21 14:46:53;;;;;;;0.95;0.57;;;;;;;;;;4752742;30;20127;-55
2022/07/21 14:49:21;;;;;;;1.00;0.60;;;;;;;;;;4752727;30;20059;-54
2022/07/21 14:51:48;;;;;;;0.75;0.68;;;;;;;;;;4752602;30;20048;-52
2022/07/21 14:54:15;;;;;;;2.78;0.70;;;;;;;;;;4752942;30;20526;-53
2022/07/21 14:56:45;;;;;;;1.77;0.70;;;;;;;;;;4752923;30;20098;-52
2022/07/21 14:59:32;;;;;;;1.55;0.70;;;;;;;;;;4752593;30;20059;-52
2022/07/21 15:01:59;;;;;;;2.75;0.70;;;;;;;;;;4752724;30;20056;-54
2022/07/21 15:04:35;;;;;;;1.67;0.93;;;;;;;;;;4723321;30;20509;-56
2022/07/21 15:07:03;;;;;;;1.05;0.60;;;;;;;;;;4752731;30;20470;-54
2022/07/21 15:09:30;;;;;;;1.35;0.70;;;;;;;;;;4752353;30;20562;-55
2022/07/21 15:11:57;;;;;;;0.73;0.57;;;;;;;;;;4752785;30;20048;-53
2022/07/21 15:14:24;;;;;;;1.05;0.70;;;;;;;;;;4752534;30;20497;-56
2022/07/21 15:16:52;;;;;;;13.25;7.97;;;;;;;;;;4752330;30;20055;-53